createdAt,value
2017-10-10T00:00:04.213Z,22.52
2017-10-10T00:01:03.856Z,22.8
2017-10-10T00:02:04.180Z,22.8
2017-10-10T00:03:04.164Z,23.18
2017-10-10T00:04:04.147Z,23.18
2017-10-10T00:05:03.795Z,23.47
2017-10-10T00:06:04.112Z,23.38
2017-10-10T00:07:03.767Z,23.75
2017-10-10T00:08:04.084Z,24.14
2017-10-10T00:09:04.085Z,24.33
2017-10-10T00:10:04.065Z,24.04
2017-10-10T00:11:04.047Z,24.53
2017-10-10T00:12:04.033Z,24.91
2017-10-10T00:13:03.677Z,25.2
2017-10-10T00:14:03.667Z,25.38
2017-10-10T00:15:03.651Z,25.29
2017-10-10T00:16:03.967Z,25.39
2017-10-10T00:17:03.615Z,25.47
2017-10-10T00:18:03.938Z,25.87
2017-10-10T00:19:03.789Z,25.77
2017-10-10T00:20:03.572Z,25.85
2017-10-10T00:21:03.895Z,25.87
2017-10-10T00:22:03.878Z,26.44
2017-10-10T00:23:03.529Z,26.34
2017-10-10T00:24:03.510Z,26.25
2017-10-10T00:25:03.831Z,26.33
2017-10-10T00:26:03.484Z,26.44
2017-10-10T00:27:03.796Z,26.63
2017-10-10T00:28:03.784Z,26.9
2017-10-10T00:29:03.774Z,26.92
2017-10-10T00:30:03.753Z,26.82
2017-10-10T00:31:03.405Z,26.9
2017-10-10T00:32:03.390Z,27.39
2017-10-10T00:33:03.707Z,26.9
2017-10-10T00:34:03.357Z,27.39
2017-10-10T00:35:03.344Z,27.11
2017-10-10T00:36:03.662Z,27.86
2017-10-10T00:37:03.650Z,27.59
2017-10-10T00:38:03.297Z,27.68
2017-10-10T00:39:03.615Z,27.67
2017-10-10T00:40:03.603Z,27.78
2017-10-10T00:41:03.592Z,27.95
2017-10-10T00:42:03.241Z,27.87
2017-10-10T00:43:03.557Z,28.44
2017-10-10T00:44:03.204Z,28.05
2017-10-10T00:45:03.527Z,28.25
2017-10-10T00:46:03.185Z,28.16
2017-10-10T00:47:03.509Z,28.25
2017-10-10T00:48:03.479Z,28.33
2017-10-10T00:49:03.470Z,28.14
2017-10-10T00:50:03.452Z,28.16
2017-10-10T00:51:03.434Z,28.24
2017-10-10T00:52:03.419Z,28.16
2017-10-10T00:53:03.076Z,28.44
2017-10-10T00:54:03.395Z,28.25
2017-10-10T00:55:03.049Z,28.33
2017-10-10T00:56:03.034Z,28.25
2017-10-10T00:57:03.349Z,28.33
2017-10-10T00:58:03.329Z,28.16
2017-10-10T00:59:02.987Z,28.06
2017-10-10T01:00:03.300Z,28.25
2017-10-10T01:01:03.283Z,28.14
2017-10-10T01:02:03.293Z,28.16
2017-10-10T01:03:03.261Z,28.44
2017-10-10T01:04:03.245Z,27.97
2017-10-10T01:05:03.241Z,28.06
2017-10-10T01:06:02.883Z,28.16
2017-10-10T01:07:03.216Z,28.16
2017-10-10T01:08:03.178Z,28.44
2017-10-10T01:09:02.832Z,28.35
2017-10-10T01:10:03.151Z,28.06
2017-10-10T01:11:02.802Z,28.35
2017-10-10T01:12:03.121Z,28.44
2017-10-10T01:13:02.773Z,28.54
2017-10-10T01:14:03.093Z,28.44
2017-10-10T01:15:03.076Z,28.64
2017-10-10T01:16:03.064Z,28.35
2017-10-10T01:17:03.045Z,28.25
2017-10-10T01:18:02.697Z,28.35
2017-10-10T01:19:03.017Z,28.25
2017-10-10T01:20:02.667Z,28.25
2017-10-10T01:21:02.654Z,28.25
2017-10-10T01:22:02.984Z,28.35
2017-10-10T01:23:02.965Z,28.92
2017-10-10T01:24:02.608Z,28.73
2017-10-10T01:25:02.601Z,28.83
2017-10-10T01:26:02.915Z,28.83
2017-10-10T01:27:02.571Z,28.92
2017-10-10T01:28:02.883Z,28.83
2017-10-10T01:29:02.541Z,28.83
2017-10-10T01:30:02.857Z,28.83
2017-10-10T01:31:02.840Z,28.83
2017-10-10T01:32:02.829Z,28.92
2017-10-10T01:33:02.471Z,28.92
2017-10-10T01:34:02.455Z,29.11
2017-10-10T01:35:02.442Z,29.02
2017-10-10T01:36:02.429Z,29.3
2017-10-10T01:37:02.414Z,29.3
2017-10-10T01:38:02.736Z,29.21
2017-10-10T01:39:02.386Z,29.69
2017-10-10T01:40:02.367Z,29.78
2017-10-10T01:41:02.354Z,29.69
2017-10-10T01:42:02.674Z,29.59
2017-10-10T01:43:02.326Z,29.4
2017-10-10T01:44:02.654Z,29.3
2017-10-10T01:45:02.630Z,30.16
2017-10-10T01:46:02.277Z,29.69
2017-10-10T01:47:02.598Z,29.78
2017-10-10T01:48:02.586Z,30.07
2017-10-10T01:49:02.567Z,29.97
2017-10-10T01:50:02.217Z,30.07
2017-10-10T01:51:02.205Z,30.64
2017-10-10T01:52:02.522Z,30.45
2017-10-10T01:53:02.181Z,30.45
2017-10-10T01:54:02.494Z,30.64
2017-10-10T01:55:02.476Z,30.45
2017-10-10T01:56:02.131Z,30.64
2017-10-10T01:57:02.110Z,30.55
2017-10-10T01:58:02.098Z,30.55
2017-10-10T01:59:02.084Z,30.64
2017-10-10T02:00:02.069Z,30.45
2017-10-10T02:01:02.054Z,31.02
2017-10-10T02:02:02.037Z,30.74
2017-10-10T02:03:02.358Z,30.64
2017-10-10T02:04:02.010Z,30.83
2017-10-10T02:05:02.344Z,30.83
2017-10-10T02:06:02.310Z,30.83
2017-10-10T02:07:02.299Z,31.02
2017-10-10T02:08:01.949Z,30.93
2017-10-10T02:09:02.271Z,31.21
2017-10-10T02:10:02.266Z,31.21
2017-10-10T02:11:02.242Z,31.12
2017-10-10T02:12:02.223Z,31.12
2017-10-10T02:13:02.203Z,31.4
2017-10-10T02:14:01.856Z,31.31
2017-10-10T02:15:02.178Z,31.5
2017-10-10T02:16:02.159Z,31.6
2017-10-10T02:17:01.815Z,31.6
2017-10-10T02:18:01.797Z,31.69
2017-10-10T02:19:02.319Z,31.98
2017-10-10T02:20:02.102Z,31.87
2017-10-10T02:21:01.752Z,32.07
2017-10-10T02:22:01.736Z,32.06
2017-10-10T02:23:01.729Z,32.17
2017-10-10T02:24:02.040Z,32.26
2017-10-10T02:25:02.027Z,32.45
2017-10-10T02:26:01.679Z,32.65
2017-10-10T02:27:01.997Z,32.45
2017-10-10T02:28:01.649Z,32.92
2017-10-10T02:29:01.632Z,33.03
2017-10-10T02:30:01.954Z,33.03
2017-10-10T02:31:01.936Z,33.03
2017-10-10T02:32:01.589Z,33.12
2017-10-10T02:33:01.572Z,33.31
2017-10-10T02:34:01.567Z,33.39
2017-10-10T02:35:01.884Z,33.98
2017-10-10T02:36:01.534Z,33.98
2017-10-10T02:37:01.850Z,34.16
2017-10-10T02:38:01.495Z,34.27
2017-10-10T02:39:01.824Z,34.27
2017-10-10T02:40:01.481Z,34.36
2017-10-10T02:41:01.454Z,34.94
2017-10-10T02:42:01.776Z,34.63
2017-10-10T02:43:01.423Z,35.03
2017-10-10T02:44:01.741Z,35.39
2017-10-10T02:45:01.728Z,35.8
2017-10-10T02:46:01.711Z,35.89
2017-10-10T02:47:01.363Z,36.07
2017-10-10T02:48:01.356Z,37.04
2017-10-10T02:49:01.336Z,37.04
2017-10-10T02:50:01.657Z,36.75
2017-10-10T02:51:01.640Z,37.13
2017-10-10T02:52:01.288Z,38.17
2017-10-10T02:53:01.272Z,38.95
2017-10-10T02:54:01.256Z,38.85
2017-10-10T02:55:01.244Z,38.85
2017-10-10T02:56:01.230Z,39.14
2017-10-10T02:57:01.214Z,39.42
2017-10-10T02:58:01.533Z,39.52
2017-10-10T02:59:01.517Z,39.81
2017-10-10T03:00:01.168Z,39.71
2017-10-10T03:01:01.484Z,40.37
2017-10-10T03:02:01.137Z,40.66
2017-10-10T03:03:01.460Z,40.57
2017-10-10T03:04:01.106Z,40.66
2017-10-10T03:05:01.428Z,41.24
2017-10-10T03:06:01.413Z,41.62
2017-10-10T03:07:01.397Z,41.81
2017-10-10T03:08:01.391Z,41.71
2017-10-10T03:09:01.046Z,41.24
2017-10-10T03:10:01.017Z,41.33
2017-10-10T03:11:01.339Z,41.33
2017-10-10T03:12:01.332Z,41.33
2017-10-10T03:13:00.974Z,41.14
2017-10-10T03:14:01.295Z,40.95
2017-10-10T03:15:01.282Z,41.33
2017-10-10T03:16:00.927Z,40.86
2017-10-10T03:17:01.256Z,41.62
2017-10-10T03:18:01.233Z,41.24
2017-10-10T03:19:01.219Z,41.91
2017-10-10T03:20:01.207Z,41.52
2017-10-10T03:21:01.189Z,41.91
2017-10-10T03:22:01.175Z,41.91
2017-10-10T03:23:01.162Z,42.1
2017-10-10T03:24:00.810Z,42.1
2017-10-10T03:25:00.793Z,42.57
2017-10-10T03:26:01.113Z,42.38
2017-10-10T03:27:00.768Z,42.67
2017-10-10T03:28:00.752Z,43.33
2017-10-10T03:29:00.741Z,43.05
2017-10-10T03:30:00.727Z,42.77
2017-10-10T03:31:01.051Z,42.57
2017-10-10T03:32:00.687Z,42.57
2017-10-10T03:33:01.008Z,42.77
2017-10-10T03:34:00.657Z,42.67
2017-10-10T03:35:00.642Z,42.67
2017-10-10T03:36:00.626Z,42.67
2017-10-10T03:37:00.947Z,42.77
2017-10-10T03:38:00.599Z,42.29
2017-10-10T03:39:00.919Z,42.57
2017-10-10T03:40:00.570Z,42.67
2017-10-10T03:41:00.887Z,42.57
2017-10-10T03:42:00.539Z,42.38
2017-10-10T03:43:00.858Z,42.48
2017-10-10T03:44:00.507Z,42.48
2017-10-10T03:45:00.828Z,42.77
2017-10-10T03:46:00.480Z,42.38
2017-10-10T03:47:00.805Z,42.38
2017-10-10T03:48:00.820Z,42.57
2017-10-10T03:49:00.767Z,42.67
2017-10-10T03:50:00.759Z,42.77
2017-10-10T03:51:00.404Z,42.77
2017-10-10T03:52:00.393Z,42.67
2017-10-10T03:53:00.373Z,42.86
2017-10-10T03:54:00.359Z,42.67
2017-10-10T03:55:00.674Z,42.67
2017-10-10T03:56:00.662Z,42.86
2017-10-10T03:57:00.645Z,42.67
2017-10-10T03:58:00.637Z,42.48
2017-10-10T03:59:00.625Z,42.77
2017-10-10T04:00:00.604Z,42.77
2017-10-10T04:01:00.316Z,42.67
2017-10-10T04:02:00.580Z,42.77
2017-10-10T04:03:00.556Z,42.77
2017-10-10T04:04:00.555Z,42.77
2017-10-10T04:05:00.537Z,42.77
2017-10-10T04:06:00.512Z,42.67
2017-10-10T04:07:00.509Z,42.67
2017-10-10T04:08:00.151Z,42.29
2017-10-10T04:09:00.470Z,42.29
2017-10-10T04:10:00.119Z,42.1
2017-10-10T04:11:00.158Z,41.91
2017-10-10T04:12:00.088Z,42.38
2017-10-10T04:13:00.073Z,42.38
2017-10-10T04:14:00.391Z,42.57
2017-10-10T04:15:00.374Z,42
2017-10-10T04:16:00.029Z,42
2017-10-10T04:17:00.014Z,42.29
2017-10-10T04:18:00.336Z,41.91
2017-10-10T04:19:00.523Z,42.1
2017-10-10T04:19:59.972Z,42.29
2017-10-10T04:20:59.962Z,41.91
2017-10-10T04:21:59.943Z,42.19
2017-10-10T04:22:59.929Z,41.91
2017-10-10T04:24:00.242Z,42.1
2017-10-10T04:25:00.228Z,42.38
2017-10-10T04:26:00.216Z,42.48
2017-10-10T04:27:00.210Z,42.57
2017-10-10T04:28:00.183Z,42.67
2017-10-10T04:28:59.835Z,42
2017-10-10T04:30:00.152Z,42.29
2017-10-10T04:31:00.140Z,42.29
2017-10-10T04:32:00.127Z,42.48
2017-10-10T04:33:00.111Z,42.1
2017-10-10T04:34:00.096Z,42.1
2017-10-10T04:34:59.747Z,42.29
2017-10-10T04:35:59.733Z,42.57
2017-10-10T04:36:59.719Z,42.48
2017-10-10T04:38:00.034Z,42.48
2017-10-10T04:39:00.022Z,42
2017-10-10T04:40:00.006Z,41.81
2017-10-10T04:40:59.656Z,42
2017-10-10T04:41:59.993Z,42.48
2017-10-10T04:42:59.962Z,42.48
2017-10-10T04:43:59.613Z,42
2017-10-10T04:44:59.927Z,42.11
2017-10-10T04:45:59.912Z,42.29
2017-10-10T04:46:59.564Z,42.29
2017-10-10T04:47:59.884Z,42.11
2017-10-10T04:48:59.868Z,41.93
2017-10-10T04:49:59.852Z,41.91
2017-10-10T04:50:59.845Z,41.71
2017-10-10T04:51:59.824Z,41.62
2017-10-10T04:52:59.818Z,41.62
2017-10-10T04:53:59.805Z,41.26
2017-10-10T04:54:59.447Z,41.05
2017-10-10T04:55:59.769Z,41.05
2017-10-10T04:56:59.752Z,41.45
2017-10-10T04:57:59.406Z,41.62
2017-10-10T04:58:59.732Z,41.55
2017-10-10T04:59:59.372Z,41.91
2017-10-10T05:00:59.359Z,41.62
2017-10-10T05:01:59.676Z,41.55
2017-10-10T05:02:59.330Z,42
2017-10-10T05:03:59.311Z,41.43
2017-10-10T05:04:59.630Z,41.14
2017-10-10T05:05:59.621Z,41.52
2017-10-10T05:06:59.606Z,41.24
2017-10-10T05:07:59.588Z,40.57
2017-10-10T05:08:59.573Z,40.49
2017-10-10T05:09:59.557Z,40.47
2017-10-10T05:10:59.544Z,40
2017-10-10T05:11:59.197Z,39.71
2017-10-10T05:12:59.518Z,39.14
2017-10-10T05:13:59.505Z,39.25
2017-10-10T05:14:59.487Z,38.85
2017-10-10T05:15:59.133Z,38.49
2017-10-10T05:16:59.120Z,38.28
2017-10-10T05:17:59.439Z,37.99
2017-10-10T05:18:59.089Z,37.99
2017-10-10T05:19:59.075Z,37.61
2017-10-10T05:20:59.060Z,37.63
2017-10-10T05:21:59.044Z,37.63
2017-10-10T05:22:59.366Z,37.32
2017-10-10T05:23:59.027Z,37.13
2017-10-10T05:24:59.347Z,36.75
2017-10-10T05:25:59.321Z,36.66
2017-10-10T05:26:58.970Z,36.66
2017-10-10T05:27:59.288Z,36.18
2017-10-10T05:28:58.950Z,36.68
2017-10-10T05:29:58.925Z,36.1
2017-10-10T05:30:59.256Z,35.99
2017-10-10T05:31:58.900Z,35.7
2017-10-10T05:32:59.215Z,35.03
2017-10-10T05:33:58.874Z,35.13
2017-10-10T05:34:59.191Z,35.53
2017-10-10T05:35:58.837Z,35.24
2017-10-10T05:36:58.823Z,35.05
2017-10-10T05:37:58.804Z,34.95
2017-10-10T05:38:59.128Z,34.94
2017-10-10T05:39:59.108Z,35.13
2017-10-10T05:40:59.091Z,34.77
2017-10-10T05:41:59.077Z,34.86
2017-10-10T05:42:58.729Z,34.57
2017-10-10T05:43:59.062Z,34.86
2017-10-10T05:44:58.706Z,34.77
2017-10-10T05:45:58.694Z,34.86
2017-10-10T05:46:59.013Z,34.95
2017-10-10T05:47:58.990Z,34.86
2017-10-10T05:48:58.974Z,34.95
2017-10-10T05:49:58.962Z,34.48
2017-10-10T05:50:58.624Z,34.57
2017-10-10T05:51:58.932Z,34.86
2017-10-10T05:52:58.582Z,34.48
2017-10-10T05:53:58.569Z,34.38
2017-10-10T05:54:58.896Z,34
2017-10-10T05:55:58.537Z,34.09
2017-10-10T05:56:58.523Z,33.81
2017-10-10T05:57:58.842Z,33.91
2017-10-10T05:58:58.827Z,33.52
2017-10-10T05:59:58.821Z,33.62
2017-10-10T06:00:58.796Z,33.52
2017-10-10T06:01:58.782Z,33.04
2017-10-10T06:02:58.436Z,32.84
2017-10-10T06:03:58.757Z,32.86
2017-10-10T06:04:58.740Z,33.04
2017-10-10T06:05:58.392Z,32.66
2017-10-10T06:06:58.377Z,32.37
2017-10-10T06:07:58.361Z,32.28
2017-10-10T06:08:58.703Z,31.99
2017-10-10T06:09:58.669Z,32.09
2017-10-10T06:10:58.649Z,32.09
2017-10-10T06:11:58.303Z,31.99
2017-10-10T06:12:58.290Z,31.71
2017-10-10T06:13:58.608Z,31.71
2017-10-10T06:14:58.587Z,31.71
2017-10-10T06:15:58.579Z,31.61
2017-10-10T06:16:58.570Z,31.51
2017-10-10T06:17:58.212Z,31.51
2017-10-10T06:18:58.743Z,31.71
2017-10-10T06:19:58.525Z,31.42
2017-10-10T06:20:58.188Z,31.32
2017-10-10T06:21:58.154Z,31.04
2017-10-10T06:22:58.139Z,31.13
2017-10-10T06:23:58.459Z,31.13
2017-10-10T06:24:58.445Z,31.23
2017-10-10T06:25:58.094Z,31.13
2017-10-10T06:26:58.415Z,31.13
2017-10-10T06:27:58.401Z,31.32
2017-10-10T06:28:58.385Z,31.13
2017-10-10T06:29:58.373Z,31.32
2017-10-10T06:30:58.362Z,31.23
2017-10-10T06:31:58.342Z,31.04
2017-10-10T06:32:58.330Z,30.85
2017-10-10T06:33:57.981Z,30.94
2017-10-10T06:34:58.302Z,30.85
2017-10-10T06:35:58.290Z,30.75
2017-10-10T06:36:58.267Z,30.85
2017-10-10T06:37:57.921Z,30.75
2017-10-10T06:38:57.905Z,30.85
2017-10-10T06:39:57.891Z,30.94
2017-10-10T06:40:57.881Z,30.94
2017-10-10T06:41:57.861Z,30.75
2017-10-10T06:42:58.177Z,30.85
2017-10-10T06:43:57.829Z,30.85
2017-10-10T06:44:58.159Z,30.75
2017-10-10T06:45:57.806Z,30.66
2017-10-10T06:46:58.125Z,31.04
2017-10-10T06:47:57.770Z,30.66
2017-10-10T06:48:58.092Z,30.56
2017-10-10T06:49:58.082Z,30.18
2017-10-10T06:50:58.077Z,30.37
2017-10-10T06:51:57.716Z,30.66
2017-10-10T06:52:57.699Z,30.46
2017-10-10T06:53:58.013Z,30.27
2017-10-10T06:54:58.000Z,29.89
2017-10-10T06:55:57.660Z,29.99
2017-10-10T06:56:57.644Z,29.41
2017-10-10T06:57:57.955Z,29.7
2017-10-10T06:58:57.611Z,29.7
2017-10-10T06:59:57.932Z,29.32
2017-10-10T07:00:57.581Z,29.32
2017-10-10T07:01:57.579Z,29.13
2017-10-10T07:02:57.885Z,28.94
2017-10-10T07:03:57.542Z,28.27
2017-10-10T07:04:57.519Z,28.55
2017-10-10T07:05:57.850Z,28.27
2017-10-10T07:06:57.844Z,28.17
2017-10-10T07:07:57.488Z,27.98
2017-10-10T07:08:57.804Z,28.17
2017-10-10T07:09:57.448Z,28.17
2017-10-10T07:10:57.435Z,28.08
2017-10-10T07:11:57.420Z,28.08
2017-10-10T07:12:57.740Z,27.9
2017-10-10T07:13:57.389Z,28.17
2017-10-10T07:14:57.708Z,27.79
2017-10-10T07:15:57.358Z,27.31
2017-10-10T07:16:57.684Z,27.5
2017-10-10T07:17:57.677Z,27.6
2017-10-10T07:18:57.320Z,27.52
2017-10-10T07:19:57.631Z,27.03
2017-10-10T07:20:57.288Z,27.03
2017-10-10T07:21:57.271Z,27.5
2017-10-10T07:22:57.257Z,27.12
2017-10-10T07:23:57.239Z,26.93
2017-10-10T07:24:57.561Z,26.64
2017-10-10T07:25:57.210Z,26.55
2017-10-10T07:26:57.531Z,26.26
2017-10-10T07:27:57.521Z,26.07
2017-10-10T07:28:57.169Z,26.17
2017-10-10T07:29:57.154Z,26.35
2017-10-10T07:30:57.469Z,25.89
2017-10-10T07:31:57.126Z,25.69
2017-10-10T07:32:57.117Z,26.18
2017-10-10T07:33:57.425Z,25.8
2017-10-10T07:34:57.082Z,25.8
2017-10-10T07:35:57.066Z,25.7
2017-10-10T07:36:57.388Z,25.7
2017-10-10T07:37:57.369Z,26.37
2017-10-10T07:38:57.354Z,26.18
2017-10-10T07:39:57.349Z,26.18
2017-10-10T07:40:57.337Z,26.18
2017-10-10T07:41:56.977Z,26.28
2017-10-10T07:42:57.295Z,26.28
2017-10-10T07:43:56.947Z,26.46
2017-10-10T07:44:57.281Z,26.46
2017-10-10T07:45:56.924Z,26.66
2017-10-10T07:46:57.236Z,26.56
2017-10-10T07:47:57.229Z,26.85
2017-10-10T07:48:57.212Z,27.14
2017-10-10T07:49:56.862Z,26.95
2017-10-10T07:50:57.190Z,27.23
2017-10-10T07:51:57.171Z,27.04
2017-10-10T07:52:57.150Z,27.52
2017-10-10T07:53:57.145Z,27.23
2017-10-10T07:54:57.136Z,27.71
2017-10-10T07:55:57.121Z,27.71
2017-10-10T07:56:56.762Z,27.71
2017-10-10T07:57:56.748Z,27.71
2017-10-10T07:58:56.733Z,28.09
2017-10-10T07:59:56.719Z,28
2017-10-10T08:00:57.041Z,28.28
2017-10-10T08:01:57.023Z,28.19
2017-10-10T08:02:56.677Z,28.19
2017-10-10T08:03:57.010Z,28.38
2017-10-10T08:04:56.984Z,28.28
2017-10-10T08:05:56.963Z,28.38
2017-10-10T08:06:56.964Z,28.28
2017-10-10T08:07:56.936Z,28.95
2017-10-10T08:08:56.587Z,28.95
2017-10-10T08:09:56.577Z,29.24
2017-10-10T08:10:56.900Z,29.05
2017-10-10T08:11:56.543Z,29.43
2017-10-10T08:12:56.533Z,29.33
2017-10-10T08:13:56.518Z,29.52
2017-10-10T08:14:56.835Z,30.19
2017-10-10T08:15:56.487Z,30.19
2017-10-10T08:16:56.804Z,30.4
2017-10-10T08:17:56.796Z,31.34
2017-10-10T08:18:56.982Z,31.63
2017-10-10T08:19:56.769Z,32.12
2017-10-10T08:20:56.752Z,32.41
2017-10-10T08:21:56.739Z,32.5
2017-10-10T08:22:56.389Z,33.56
2017-10-10T08:23:56.722Z,33.56
2017-10-10T08:24:56.695Z,33.36
2017-10-10T08:25:56.348Z,34.03
2017-10-10T08:26:56.666Z,34.61
2017-10-10T08:27:56.653Z,35.08
2017-10-10T08:28:56.640Z,36.23
2017-10-10T08:29:56.290Z,36.43
2017-10-10T08:30:56.279Z,36.43
2017-10-10T08:31:56.604Z,36.99
2017-10-10T08:32:56.589Z,37.85
2017-10-10T08:33:56.576Z,37.76
2017-10-10T08:34:56.562Z,37.85
2017-10-10T08:35:56.210Z,38.43
2017-10-10T08:36:56.532Z,39.39
2017-10-10T08:37:56.186Z,40.44
2017-10-10T08:38:56.168Z,40.34
2017-10-10T08:39:56.489Z,40.34
2017-10-10T08:40:56.479Z,41.49
2017-10-10T08:41:56.131Z,41.97
2017-10-10T08:42:56.448Z,41.78
2017-10-10T08:43:56.102Z,43.71
2017-10-10T08:44:56.088Z,43.9
2017-10-10T08:45:56.418Z,45.81
2017-10-10T08:46:56.070Z,45.91
2017-10-10T08:47:56.385Z,45.72
2017-10-10T08:48:56.373Z,45.41
2017-10-10T08:49:56.362Z,50.41
2017-10-10T08:50:56.346Z,49.16
2017-10-10T08:51:56.340Z,50.21
2017-10-10T08:52:56.314Z,51.84
2017-10-10T08:53:56.306Z,52.89
2017-10-10T08:54:55.955Z,53.18
2017-10-10T08:55:55.942Z,54.52
2017-10-10T08:56:55.930Z,54.52
2017-10-10T08:57:55.916Z,55.19
2017-10-10T08:58:55.900Z,57.48
2017-10-10T08:59:55.891Z,58.44
2017-10-10T09:00:55.877Z,59.11
2017-10-10T09:01:56.198Z,60.06
2017-10-10T09:02:56.185Z,60.38
2017-10-10T09:03:55.838Z,61.51
2017-10-10T09:04:56.171Z,63.8
2017-10-10T09:05:56.143Z,62.08
2017-10-10T09:06:55.798Z,62.74
2017-10-10T09:07:56.119Z,62.55
2017-10-10T09:08:56.115Z,62.46
2017-10-10T09:09:56.092Z,60.64
2017-10-10T09:10:55.751Z,60.26
2017-10-10T09:11:56.068Z,59.78
2017-10-10T09:12:55.720Z,59.88
2017-10-10T09:13:56.043Z,61.02
2017-10-10T09:14:55.696Z,62.08
2017-10-10T09:15:56.015Z,64.95
2017-10-10T09:16:55.999Z,69.15
2017-10-10T09:17:56.013Z,69.29
2017-10-10T09:18:55.647Z,70.01
2017-10-10T09:19:55.967Z,70.01
2017-10-10T09:20:55.621Z,70.78
2017-10-10T09:21:55.955Z,69.48
2017-10-10T09:22:55.927Z,68.42
2017-10-10T09:23:55.909Z,69.19
2017-10-10T09:24:55.906Z,69.67
2017-10-10T09:25:55.556Z,70.15
2017-10-10T09:26:55.879Z,71.68
2017-10-10T09:27:55.860Z,73.21
2017-10-10T09:28:55.514Z,72.44
2017-10-10T09:29:55.504Z,75.45
2017-10-10T09:30:55.826Z,72.19
2017-10-10T09:31:55.814Z,75.26
2017-10-10T09:32:55.468Z,74.77
2017-10-10T09:33:55.791Z,76.98
2017-10-10T09:34:55.446Z,74.68
2017-10-10T09:35:55.428Z,75.41
2017-10-10T09:36:55.432Z,73.3
2017-10-10T09:37:55.745Z,73.5
2017-10-10T09:38:55.740Z,72.92
2017-10-10T09:39:55.722Z,73.4
2017-10-10T09:40:55.376Z,74.74
2017-10-10T09:41:55.693Z,73.3
2017-10-10T09:42:55.344Z,72.16
2017-10-10T09:43:55.332Z,72.54
2017-10-10T09:44:55.659Z,71.87
2017-10-10T09:45:55.306Z,71.2
2017-10-10T09:46:55.298Z,71.3
2017-10-10T09:47:55.617Z,70.3
2017-10-10T09:48:55.271Z,70.01
2017-10-10T09:49:55.591Z,69.06
2017-10-10T09:50:55.246Z,67.43
2017-10-10T09:51:55.565Z,65.9
2017-10-10T09:52:55.555Z,64.95
2017-10-10T09:53:55.539Z,64.28
2017-10-10T09:54:55.193Z,64.47
2017-10-10T09:55:55.520Z,65.23
2017-10-10T09:56:55.169Z,64.28
2017-10-10T09:57:55.154Z,67.14
2017-10-10T09:58:55.141Z,66.57
2017-10-10T09:59:55.458Z,65.23
2017-10-10T10:00:55.114Z,66
2017-10-10T10:01:55.439Z,66.41
2017-10-10T10:02:55.423Z,65.61
2017-10-10T10:03:55.410Z,66
2017-10-10T10:04:55.064Z,66.67
2017-10-10T10:05:55.382Z,66.22
2017-10-10T10:06:55.370Z,66.41
2017-10-10T10:07:55.368Z,68.04
2017-10-10T10:08:55.349Z,66.99
2017-10-10T10:09:55.015Z,68.62
2017-10-10T10:10:55.320Z,65.36
2017-10-10T10:11:54.976Z,66.22
2017-10-10T10:12:54.960Z,68.94
2017-10-10T10:13:55.278Z,71.62
2017-10-10T10:14:55.275Z,72.29
2017-10-10T10:15:55.252Z,72.09
2017-10-10T10:16:54.907Z,75.73
2017-10-10T10:17:55.231Z,76.79
2017-10-10T10:18:55.086Z,77.26
2017-10-10T10:19:54.870Z,75.39
2017-10-10T10:20:55.203Z,73.19
2017-10-10T10:21:55.196Z,79.03
2017-10-10T10:22:55.171Z,76.64
2017-10-10T10:23:54.821Z,79.41
2017-10-10T10:24:55.146Z,82.9
2017-10-10T10:25:55.135Z,86.12
2017-10-10T10:26:55.123Z,83.72
2017-10-10T10:27:54.794Z,83.53
2017-10-10T10:28:54.783Z,83.92
2017-10-10T10:29:55.105Z,81.43
2017-10-10T10:30:54.747Z,81.33
2017-10-10T10:31:54.733Z,83.76
2017-10-10T10:32:55.057Z,82.81
2017-10-10T10:33:54.715Z,82.04
2017-10-10T10:34:54.705Z,80.99
2017-10-10T10:35:55.028Z,83.76
2017-10-10T10:36:55.011Z,84.15
2017-10-10T10:37:54.998Z,83.92
2017-10-10T10:38:54.659Z,83.44
2017-10-10T10:39:54.983Z,82.29
2017-10-10T10:40:54.968Z,79.22
2017-10-10T10:41:54.959Z,81.62
2017-10-10T10:42:54.947Z,85.74
2017-10-10T10:43:54.606Z,84.34
2017-10-10T10:44:54.594Z,83.72
2017-10-10T10:45:54.917Z,84.01
2017-10-10T10:46:54.900Z,86.83
2017-10-10T10:47:54.563Z,89.51
2017-10-10T10:48:54.549Z,86.25
2017-10-10T10:49:54.536Z,86.83
2017-10-10T10:50:54.859Z,87.02
2017-10-10T10:51:54.513Z,88.13
2017-10-10T10:52:54.835Z,88.42
2017-10-10T10:53:54.496Z,88.13
2017-10-10T10:54:54.479Z,87.74
2017-10-10T10:55:54.471Z,86.88
2017-10-10T10:56:54.463Z,86.79
2017-10-10T10:57:54.785Z,84.11
2017-10-10T10:58:54.772Z,84.39
2017-10-10T10:59:54.758Z,84.58
2017-10-10T11:00:54.750Z,83.63
2017-10-10T11:01:54.738Z,85.11
2017-10-10T11:02:54.729Z,84.53
2017-10-10T11:03:54.715Z,85.11
2017-10-10T11:04:54.710Z,85.01
2017-10-10T11:05:54.689Z,84.72
2017-10-10T11:06:54.686Z,88.27
2017-10-10T11:07:54.335Z,87.6
2017-10-10T11:08:54.659Z,88.84
2017-10-10T11:09:54.311Z,86.93
2017-10-10T11:10:54.644Z,89.71
2017-10-10T11:11:54.625Z,89.71
2017-10-10T11:12:54.617Z,92.1
2017-10-10T11:13:54.638Z,94.21
2017-10-10T11:14:54.597Z,93.93
2017-10-10T11:15:54.247Z,94.02
2017-10-10T11:16:54.576Z,89.23
2017-10-10T11:17:54.567Z,89.51
2017-10-10T11:18:54.553Z,88.37
2017-10-10T11:19:54.212Z,89.42
2017-10-10T11:20:54.195Z,89.32
2017-10-10T11:21:54.184Z,90.86
2017-10-10T11:22:54.504Z,88.02
2017-10-10T11:23:54.156Z,94.35
2017-10-10T11:24:54.479Z,92.58
2017-10-10T11:25:54.137Z,91.63
2017-10-10T11:26:54.464Z,94.31
2017-10-10T11:27:54.448Z,91.24
2017-10-10T11:28:54.447Z,93.63
2017-10-10T11:29:54.096Z,92.01
2017-10-10T11:30:54.423Z,88.17
2017-10-10T11:31:54.406Z,88.94
2017-10-10T11:32:54.390Z,91.82
2017-10-10T11:33:54.383Z,87.6
2017-10-10T11:34:54.043Z,87.7
2017-10-10T11:35:54.362Z,85.63
2017-10-10T11:36:54.352Z,90.23
2017-10-10T11:37:54.339Z,92.24
2017-10-10T11:38:53.992Z,93.78
2017-10-10T11:39:54.325Z,95.6
2017-10-10T11:40:54.311Z,94.26
2017-10-10T11:41:53.964Z,94.45
2017-10-10T11:42:54.300Z,95.41
2017-10-10T11:43:54.283Z,96.37
2017-10-10T11:44:54.267Z,93.01
2017-10-10T11:45:53.925Z,94.98
2017-10-10T11:46:54.257Z,96.42
2017-10-10T11:47:54.237Z,98.05
2017-10-10T11:48:53.897Z,96.03
2017-10-10T11:49:53.887Z,93.82
2017-10-10T11:50:54.210Z,93.82
2017-10-10T11:51:53.869Z,96.61
2017-10-10T11:52:54.210Z,97.09
2017-10-10T11:53:54.181Z,96.42
2017-10-10T11:54:53.836Z,95.12
2017-10-10T11:55:54.163Z,92.96
2017-10-10T11:56:54.156Z,94.21
2017-10-10T11:57:54.138Z,99.01
2017-10-10T11:58:54.132Z,96.89
2017-10-10T11:59:54.120Z,94.45
2017-10-10T12:00:53.775Z,94.64
2017-10-10T12:01:53.766Z,96.75
2017-10-10T12:02:54.093Z,95.6
2017-10-10T12:03:54.081Z,97.61
2017-10-10T12:04:54.073Z,95.79
2017-10-10T12:05:53.728Z,96.56
2017-10-10T12:06:54.051Z,98.19
2017-10-10T12:07:53.716Z,93.97
2017-10-10T12:08:54.069Z,98.77
2017-10-10T12:09:53.692Z,94.45
2017-10-10T12:10:53.690Z,98.77
2017-10-10T12:11:53.666Z,96.18
2017-10-10T12:12:53.991Z,95.89
2017-10-10T12:13:53.649Z,94.35
2017-10-10T12:14:53.642Z,93.83
2017-10-10T12:15:53.956Z,97.61
2017-10-10T12:16:53.948Z,97.28
2017-10-10T12:17:53.939Z,97.61
2017-10-10T12:18:54.138Z,95.6
2017-10-10T12:19:53.585Z,94.98
2017-10-10T12:20:53.906Z,93.59
2017-10-10T12:21:53.898Z,95.51
2017-10-10T12:22:53.551Z,95.94
2017-10-10T12:23:53.882Z,94.93
2017-10-10T12:24:53.525Z,95.7
2017-10-10T12:25:53.521Z,96.32
2017-10-10T12:26:53.505Z,98.91
2017-10-10T12:27:53.878Z,95.94
2017-10-10T12:28:53.483Z,94.31
2017-10-10T12:29:53.474Z,94.4
2017-10-10T12:30:53.814Z,95.84
2017-10-10T12:31:53.784Z,95.36
2017-10-10T12:32:53.539Z,94.5
2017-10-10T12:33:53.433Z,93.06
2017-10-10T12:34:53.783Z,94.21
2017-10-10T12:35:53.754Z,93.88
2017-10-10T12:36:53.730Z,93.59
2017-10-10T12:37:53.715Z,94.26
2017-10-10T12:38:53.371Z,94.35
2017-10-10T12:39:53.697Z,94.64
2017-10-10T12:40:53.352Z,93.4
2017-10-10T12:41:53.671Z,93.02
2017-10-10T12:42:53.323Z,93.78
2017-10-10T12:43:53.310Z,93.49
2017-10-10T12:44:53.299Z,92.06
2017-10-10T12:45:53.624Z,91.67
2017-10-10T12:46:53.610Z,89.86
2017-10-10T12:47:53.265Z,91.19
2017-10-10T12:48:53.588Z,92.68
2017-10-10T12:49:53.236Z,91.49
2017-10-10T12:50:53.232Z,92.35
2017-10-10T12:51:53.219Z,90.81
2017-10-10T12:52:53.548Z,91.96
2017-10-10T12:53:53.191Z,90.53
2017-10-10T12:54:53.520Z,92.73